Rose Hill, KS

9:33 PM CDT on September 02, 2014 (GMT -0500)
Downtown Rose Hill | Change Station
CLOSE
Current Station
Personal Weather Station
Location: Rose Hill, KS
Elevation: 1322 ft
Nearby Weather Stations

Elev 1322 ft 37.57 °N, 97.13 °W | Updated 12 seconds ago

Clear
Clear
77.0 °F
Feels Like 79 °F
N
0.0
Wind Variable Wind from SSW
Gusts 0.0 mph

Today
High -- | Low -- °F
--% Chance of Precip.
Yesterday
High -- | Low -- °F
Precip. -- in
6:59 AM 7:56 PM
First Quarter, 57% visible
Pressure 29.91 in
Visibility 10.0 miles
Clouds Clear
Heat Index 79 °F
Dew Point 70 °F
Humidity 79%
Rainfall 0.01 in
Snow Depth Not available.
UV 0 out of 12
Pollen 10.30 out of 12
Air Quality Not available.
Flu Activity Not available.
METAR KIAB 030158Z AUTO 12007KT 10SM CLR 26/23 A2994 RMK AO2 SLP129 T02580225

More Conditions Fewer Conditions

Pressure 29.91 in
Visibility 10.0 miles
Clouds Clear
Heat Index 79 °F
Dew Point 70 °F
Humidity 79%
Rainfall 0.01 in
Snow Depth Not available.
UV 0 out of 12
Pollen 10.30 out of 12
Air Quality Not available.
Flu Activity Not available.
METAR KIAB 030158Z AUTO 12007KT 10SM CLR 26/23 A2994 RMK AO2 SLP129 T02580225

More Conditions Fewer Conditions

10-Day Weather Forecast

Almanac

Astronomy

Sep. 02, 2014 Rise Set
Actual Time 6:59 AM CDT 7:56 PM CDT
Civil Twilight 6:32 AM CDT 8:22 PM CDT
Nautical Twilight 6:01 AM CDT 8:54 PM CDT
Astronomical Twilight 5:28 AM CDT 9:27 PM CDT
Moon 2:36 PM CDT (9/2) 12:07 AM CDT (9/2)
Length of Visible Light 13h 49m
Length of Day
12h 56m
Tomorrow will be 2m 19s shorter.
First Quarter, 57% of the Moon is Illuminated
Today
First Quarter
Sep 8
Full
Sep 15
Last Quarter
Sep 24
New
Oct 1
First Quarter

Today's Extremes

State Highs State Lows

Community

WunderPhotos

Upload Photos

1,749,845 photos uploaded!

Nearby

Snow Depth

Station Depth Elevation
No new snow has been reported.

Earthquake Activity

City Distance Mag. Time & Date
Helena, Oklahoma 100 miles 3.2 3:05 AM CDT
2014-09-02
Medford, Oklahoma 74 miles 3.3 11:58 PM CDT
2014-09-01
Perry, Oklahoma 96 miles 3.1 6:46 AM CDT
2014-09-01
Jones, Oklahoma 136 miles 3.1 1:49 PM CDT
2014-08-31
Minimum magnitude displayed is 2.5.

Coastal Water Temperatures

Place Temperature
No Stations Reporting

Nearby Weather Stations